createdAt,value
2019-05-10T00:00:37.144Z,18.46
2019-05-10T00:01:37.132Z,18.39
2019-05-10T00:02:37.119Z,18.37
2019-05-10T00:03:37.111Z,18.36
2019-05-10T00:04:37.102Z,18.26
2019-05-10T00:05:37.489Z,18.09
2019-05-10T00:06:37.083Z,18.03
2019-05-10T00:07:37.068Z,18.08
2019-05-10T00:08:37.060Z,18.14
2019-05-10T00:09:37.048Z,18.11
2019-05-10T00:10:37.037Z,18.02
2019-05-10T00:11:37.076Z,18.05
2019-05-10T00:12:37.018Z,18.05
2019-05-10T00:13:37.006Z,18.08
2019-05-10T00:14:37.000Z,17.99
2019-05-10T00:15:36.989Z,17.86
2019-05-10T00:16:36.978Z,17.80
2019-05-10T00:17:37.017Z,17.81
2019-05-10T00:18:36.957Z,17.72
2019-05-10T00:19:36.943Z,17.63
2019-05-10T00:20:36.934Z,17.80
2019-05-10T00:21:36.925Z,17.77
2019-05-10T00:22:36.908Z,17.84
2019-05-10T00:23:37.052Z,17.99
2019-05-10T00:24:36.888Z,18.06
2019-05-10T00:25:36.881Z,18.09
2019-05-10T00:26:36.867Z,18.09
2019-05-10T00:27:36.862Z,18.18
2019-05-10T00:28:36.867Z,18.17
2019-05-10T00:29:36.924Z,18.34
2019-05-10T00:30:36.826Z,18.40
2019-05-10T00:31:36.817Z,18.44
2019-05-10T00:37:37.383Z,18.83
2019-05-10T00:38:04.160Z,19.01
2019-05-10T00:39:04.154Z,19.20
2019-05-10T00:40:04.189Z,19.32
2019-05-10T00:41:04.127Z,19.46
2019-05-10T00:42:04.118Z,19.49
2019-05-10T00:43:04.107Z,19.62
2019-05-10T00:44:04.095Z,19.83
2019-05-10T00:45:04.087Z,19.97
2019-05-10T00:46:04.124Z,20.18
2019-05-10T00:47:04.064Z,20.28
2019-05-10T00:48:04.059Z,20.28
2019-05-10T00:49:04.045Z,20.48
2019-05-10T00:50:10.299Z,20.43
2019-05-10T00:51:04.175Z,20.64
2019-05-10T00:52:04.012Z,20.75
2019-05-10T00:53:04.003Z,21.00
2019-05-10T00:54:03.990Z,21.12
2019-05-10T00:55:17.775Z,21.36
2019-05-10T00:56:31.869Z,21.63
2019-05-10T00:57:28.824Z,21.74
2019-05-10T00:58:28.813Z,22.05
2019-05-10T00:59:28.800Z,22.28
2019-05-10T01:00:28.797Z,22.49
2019-05-10T01:01:28.835Z,22.72
2019-05-10T01:02:28.769Z,22.96
2019-05-10T01:03:28.759Z,23.05
2019-05-10T01:04:28.751Z,23.26
2019-05-10T01:05:28.735Z,23.46
2019-05-10T01:06:28.724Z,23.75
2019-05-10T01:07:28.864Z,23.96
2019-05-10T01:08:28.704Z,24.24
2019-05-10T01:09:28.696Z,24.59
2019-05-10T01:10:28.682Z,24.84
2019-05-10T01:11:28.669Z,25.01
2019-05-10T01:12:28.661Z,25.24
2019-05-10T01:14:32.738Z,25.80
2019-05-10T01:15:28.629Z,26.08
2019-05-10T01:16:28.617Z,26.30
2019-05-10T01:17:28.607Z,26.56
2019-05-10T01:18:28.596Z,26.72
2019-05-10T01:19:28.587Z,26.73
2019-05-10T01:20:28.624Z,26.94
2019-05-10T01:21:28.566Z,27.02
2019-05-10T01:22:28.562Z,27.04
2019-05-10T01:23:28.544Z,27.29
2019-05-10T01:24:28.534Z,27.29
2019-05-10T01:25:35.366Z,27.36
2019-05-10T01:26:29.656Z,27.50
2019-05-10T01:27:28.502Z,27.57
2019-05-10T01:28:28.489Z,27.61
2019-05-10T01:29:28.478Z,27.60
2019-05-10T01:30:28.468Z,27.69
2019-05-10T01:31:28.458Z,27.81
2019-05-10T01:32:28.497Z,27.90
2019-05-10T01:33:41.174Z,27.90
2019-05-10T01:34:28.426Z,27.81
2019-05-10T01:35:28.417Z,27.91
2019-05-10T01:36:28.406Z,27.97
2019-05-10T01:37:28.546Z,28.00
2019-05-10T01:38:28.384Z,28.15
2019-05-10T01:39:28.375Z,28.35
2019-05-10T01:40:28.367Z,28.41
2019-05-10T01:41:28.353Z,28.60
2019-05-10T01:42:28.342Z,28.63
2019-05-10T01:43:28.385Z,28.81
2019-05-10T01:44:28.320Z,28.96
2019-05-10T01:45:28.315Z,29.03
2019-05-10T01:46:28.303Z,29.25
2019-05-10T01:47:28.291Z,29.33
2019-05-10T01:48:34.550Z,29.55
2019-05-10T01:49:28.324Z,29.62
2019-05-10T01:50:28.262Z,29.79
2019-05-10T01:51:28.251Z,29.87
2019-05-10T01:52:28.237Z,30.03
2019-05-10T01:53:40.965Z,30.15
2019-05-10T01:58:28.231Z,30.53
2019-05-10T01:59:28.165Z,30.70
2019-05-10T02:00:28.155Z,30.74
2019-05-10T02:01:28.150Z,30.83
2019-05-10T02:02:28.134Z,30.90
2019-05-10T02:03:28.274Z,30.92
2019-05-10T02:04:28.119Z,31.11
2019-05-10T02:05:28.109Z,31.23
2019-05-10T02:06:40.828Z,31.28
2019-05-10T02:07:28.085Z,31.55
2019-05-10T02:08:28.075Z,31.68
2019-05-10T02:09:28.115Z,31.77
2019-05-10T02:10:28.054Z,31.90
2019-05-10T02:11:28.046Z,31.97
2019-05-10T02:12:28.039Z,32.09
2019-05-10T02:13:28.026Z,32.24
2019-05-10T02:14:28.016Z,32.42
2019-05-10T02:16:28.045Z,32.53
2019-05-10T02:17:27.985Z,32.59
2019-05-10T02:18:27.973Z,32.74
2019-05-10T02:19:27.965Z,32.73
2019-05-10T02:20:27.954Z,32.89
2019-05-10T02:21:28.091Z,32.99
2019-05-10T02:22:27.932Z,33.14
2019-05-10T02:23:27.924Z,33.36
2019-05-10T02:24:27.917Z,33.48
2019-05-10T02:25:27.901Z,33.63
2019-05-10T02:27:27.929Z,34.19
2019-05-10T02:28:27.871Z,34.51
2019-05-10T02:29:27.861Z,34.71
2019-05-10T02:33:45.312Z,35.64
2019-05-10T02:34:26.099Z,35.70
2019-05-10T02:35:26.090Z,35.73
2019-05-10T02:36:26.085Z,36.07
2019-05-10T02:37:26.066Z,36.14
2019-05-10T02:38:26.205Z,36.29
2019-05-10T02:39:26.053Z,36.37
2019-05-10T02:40:26.041Z,36.37
2019-05-10T02:41:26.029Z,36.25
2019-05-10T02:42:26.018Z,36.19
2019-05-10T02:43:26.008Z,36.23
2019-05-10T02:44:26.099Z,36.13
2019-05-10T02:45:25.988Z,36.19
2019-05-10T02:46:25.978Z,36.18
2019-05-10T02:47:25.969Z,36.20
2019-05-10T02:48:25.960Z,36.10
2019-05-10T02:49:25.951Z,36.07
2019-05-10T02:50:25.991Z,36.16
2019-05-10T02:51:25.949Z,36.07
2019-05-10T02:52:25.922Z,36.00
2019-05-10T02:53:25.910Z,35.93
2019-05-10T02:54:25.904Z,35.91
2019-05-10T02:55:25.893Z,36.16
2019-05-10T02:56:31.316Z,36.13
2019-05-10T02:57:25.872Z,36.34
2019-05-10T02:58:25.865Z,36.53
2019-05-10T02:59:25.854Z,36.63
2019-05-10T03:00:25.842Z,36.67
2019-05-10T03:01:25.834Z,37.04
2019-05-10T03:02:25.886Z,37.26
2019-05-10T03:03:25.817Z,37.39
2019-05-10T03:04:25.805Z,37.53
2019-05-10T03:05:25.799Z,37.77
2019-05-10T03:06:25.787Z,38.09
2019-05-10T03:07:25.778Z,38.11
2019-05-10T03:08:25.815Z,38.22
2019-05-10T03:09:25.755Z,38.34
2019-05-10T03:10:25.746Z,38.49
2019-05-10T03:11:25.736Z,38.66
2019-05-10T03:12:25.740Z,38.42
2019-05-10T03:13:27.227Z,37.88
2019-05-10T03:14:25.858Z,37.80
2019-05-10T03:15:25.699Z,38.04
2019-05-10T03:16:25.692Z,38.17
2019-05-10T03:17:25.691Z,38.30
2019-05-10T03:18:25.669Z,38.22
2019-05-10T03:19:25.659Z,38.30
2019-05-10T03:20:25.751Z,38.45
2019-05-10T03:21:25.644Z,38.44
2019-05-10T03:22:25.644Z,38.39
2019-05-10T03:23:25.622Z,38.33
2019-05-10T03:24:27.890Z,38.32
2019-05-10T03:25:25.602Z,38.33
2019-05-10T03:26:25.646Z,38.45
2019-05-10T03:27:25.584Z,38.45
2019-05-10T03:28:25.575Z,38.58
2019-05-10T03:29:25.572Z,38.64
2019-05-10T03:30:25.554Z,38.58
2019-05-10T03:31:25.579Z,38.63
2019-05-10T03:32:25.687Z,38.86
2019-05-10T03:33:25.526Z,38.97
2019-05-10T03:34:25.549Z,39.08
2019-05-10T03:35:25.506Z,39.14
2019-05-10T03:36:25.533Z,39.27
2019-05-10T03:37:25.486Z,39.14
2019-05-10T03:38:25.527Z,39.04
2019-05-10T03:39:25.469Z,38.92
2019-05-10T03:40:25.459Z,38.86
2019-05-10T03:41:25.454Z,38.86
2019-05-10T03:42:25.441Z,38.90
2019-05-10T03:43:25.480Z,38.92
2019-05-10T03:44:25.419Z,38.87
2019-05-10T03:45:25.410Z,38.71
2019-05-10T03:46:25.403Z,38.73
2019-05-10T03:47:25.392Z,38.92
2019-05-10T03:48:25.382Z,38.97
2019-05-10T03:49:25.474Z,39.01
2019-05-10T03:50:25.365Z,38.92
2019-05-10T03:51:25.352Z,38.89
2019-05-10T03:52:25.345Z,39.00
2019-05-10T03:53:25.333Z,38.94
2019-05-10T03:54:25.322Z,38.97
2019-05-10T03:55:25.366Z,38.94
2019-05-10T03:56:25.307Z,38.90
2019-05-10T03:57:25.296Z,38.87
2019-05-10T03:58:25.283Z,39.08
2019-05-10T03:59:25.277Z,39.23
2019-05-10T04:00:25.276Z,39.35
2019-05-10T04:01:25.359Z,39.60
2019-05-10T04:02:25.265Z,39.86
2019-05-10T04:03:25.244Z,39.86
2019-05-10T04:04:25.246Z,39.90
2019-05-10T04:05:25.230Z,39.92
2019-05-10T04:06:25.383Z,40.02
2019-05-10T04:07:25.199Z,39.78
2019-05-10T04:08:25.189Z,39.67
2019-05-10T04:09:25.177Z,39.73
2019-05-10T04:10:25.172Z,39.76
2019-05-10T04:11:25.159Z,39.71
2019-05-10T04:12:25.251Z,39.69
2019-05-10T04:13:25.141Z,39.64
2019-05-10T04:14:25.131Z,39.51
2019-05-10T04:15:25.121Z,39.42
2019-05-10T04:16:25.111Z,39.58
2019-05-10T04:17:25.110Z,39.86
2019-05-10T04:18:25.140Z,40.04
2019-05-10T04:19:25.081Z,40.19
2019-05-10T04:20:25.086Z,40.32
2019-05-10T04:21:25.065Z,40.51
2019-05-10T04:22:25.062Z,40.71
2019-05-10T04:23:25.047Z,40.87
2019-05-10T04:24:25.285Z,40.86
2019-05-10T04:25:25.037Z,40.78
2019-05-10T04:26:25.018Z,40.74
2019-05-10T04:27:32.529Z,40.29
2019-05-10T04:28:49.920Z,39.81
2019-05-10T04:29:49.896Z,39.36
2019-05-10T04:30:49.787Z,39.04
2019-05-10T04:31:49.776Z,39.13
2019-05-10T04:32:49.767Z,39.17
2019-05-10T04:33:49.756Z,39.17
2019-05-10T04:34:49.847Z,39.34
2019-05-10T04:35:49.735Z,39.35
2019-05-10T04:36:49.726Z,39.58
2019-05-10T04:37:49.717Z,39.58
2019-05-10T04:38:49.707Z,39.60
2019-05-10T04:39:49.700Z,39.67
2019-05-10T04:40:49.737Z,39.83
2019-05-10T04:41:49.698Z,40.04
2019-05-10T04:42:49.668Z,40.21
2019-05-10T04:43:49.664Z,40.37
2019-05-10T04:44:53.207Z,40.26
2019-05-10T04:45:49.647Z,40.15
2019-05-10T04:46:49.777Z,40.11
2019-05-10T04:47:49.620Z,40.17
2019-05-10T04:48:49.616Z,40.14
2019-05-10T04:49:49.611Z,40.12
2019-05-10T04:50:49.695Z,39.86
2019-05-10T04:51:49.590Z,39.51
2019-05-10T04:52:49.675Z,39.32
2019-05-10T04:53:49.562Z,38.73
2019-05-10T04:54:49.550Z,37.98
2019-05-10T04:55:49.544Z,37.66
2019-05-10T04:56:49.533Z,37.46
2019-05-10T04:57:51.197Z,37.35
2019-05-10T04:58:49.577Z,37.29
2019-05-10T04:59:49.504Z,37.33
2019-05-10T05:00:49.500Z,37.42
2019-05-10T05:01:49.486Z,37.36
2019-05-10T05:02:49.478Z,37.47
2019-05-10T05:03:49.466Z,37.67
2019-05-10T05:04:49.712Z,37.82
2019-05-10T05:05:49.454Z,37.89
2019-05-10T05:06:49.435Z,37.92
2019-05-10T05:07:49.429Z,37.84
2019-05-10T05:08:49.417Z,37.85
2019-05-10T05:09:49.405Z,37.63
2019-05-10T05:10:49.448Z,37.36
2019-05-10T05:11:49.385Z,37.20
2019-05-10T05:12:49.373Z,37.05
2019-05-10T05:13:49.365Z,36.87
2019-05-10T05:14:49.355Z,36.90
2019-05-10T05:15:49.341Z,37.01
2019-05-10T05:16:49.384Z,37.20
2019-05-10T05:17:49.323Z,37.35
2019-05-10T05:18:49.450Z,37.48
2019-05-10T05:19:49.322Z,37.84
2019-05-10T05:20:49.291Z,38.03
2019-05-10T05:21:49.430Z,38.14
2019-05-10T05:22:49.270Z,38.26
2019-05-10T05:23:49.266Z,38.36
2019-05-10T05:24:49.249Z,38.26
2019-05-10T05:25:49.241Z,38.14
2019-05-10T05:26:49.279Z,38.11
2019-05-10T05:28:05.371Z,38.16
2019-05-10T05:28:50.301Z,38.10
2019-05-10T05:29:49.199Z,38.03
2019-05-10T05:30:49.192Z,38.11
2019-05-10T05:31:54.121Z,38.06
2019-05-10T05:33:14.026Z,38.04
2019-05-10T05:34:14.019Z,37.92
2019-05-10T05:35:15.518Z,37.65
2019-05-10T05:36:13.996Z,37.39
2019-05-10T05:37:13.986Z,37.19
2019-05-10T05:38:14.127Z,36.59
2019-05-10T05:39:13.978Z,36.29
2019-05-10T05:40:13.962Z,35.99
2019-05-10T05:41:13.945Z,35.63
2019-05-10T05:42:13.936Z,35.34
2019-05-10T05:43:13.925Z,35.09
2019-05-10T05:44:13.966Z,34.90
2019-05-10T05:45:13.905Z,34.61
2019-05-10T05:46:14.581Z,34.11
2019-05-10T05:47:13.884Z,33.66
2019-05-10T05:48:15.967Z,33.51
2019-05-10T05:49:38.724Z,33.38
2019-05-10T05:50:38.716Z,33.29
2019-05-10T05:51:38.700Z,33.17
2019-05-10T05:52:38.693Z,33.23
2019-05-10T05:53:42.417Z,33.14
2019-05-10T05:54:38.822Z,33.04
2019-05-10T05:55:38.663Z,32.98
2019-05-10T05:56:38.654Z,32.89
2019-05-10T05:57:38.644Z,32.81
2019-05-10T05:58:44.797Z,32.66
2019-05-10T05:59:39.768Z,32.59
2019-05-10T06:00:44.713Z,32.57
2019-05-10T06:01:39.700Z,32.62
2019-05-10T06:02:44.346Z,32.48
2019-05-10T06:04:06.468Z,32.28
2019-05-10T06:05:03.434Z,32.29
2019-05-10T06:06:15.583Z,32.19
2019-05-10T06:07:04.462Z,32.05
2019-05-10T06:08:03.561Z,32.01
2019-05-10T06:09:03.344Z,32.05
2019-05-10T06:10:03.588Z,31.91
2019-05-10T06:11:03.324Z,31.84
2019-05-10T06:12:07.324Z,31.73
2019-05-10T06:13:30.215Z,31.62
2019-05-10T06:14:28.104Z,31.61
2019-05-10T06:15:28.945Z,31.61
2019-05-10T06:16:28.083Z,31.53
2019-05-10T06:17:29.362Z,31.49
2019-05-10T06:18:28.062Z,31.61
2019-05-10T06:19:29.619Z,31.70
2019-05-10T06:20:28.057Z,31.67
2019-05-10T06:21:28.106Z,31.67
2019-05-10T06:22:28.022Z,31.70
2019-05-10T06:23:29.325Z,31.72
2019-05-10T06:24:54.018Z,31.62
2019-05-10T06:25:52.806Z,31.68
2019-05-10T06:26:52.949Z,31.65
2019-05-10T06:27:52.784Z,31.58
2019-05-10T06:28:59.418Z,31.60
2019-05-10T06:29:53.859Z,31.62
2019-05-10T06:30:52.756Z,31.43
2019-05-10T06:31:52.794Z,31.45
2019-05-10T06:32:59.511Z,31.33
2019-05-10T06:34:17.531Z,31.33
2019-05-10T06:35:19.453Z,31.38
2019-05-10T06:36:17.594Z,31.49
2019-05-10T06:37:17.598Z,31.45
2019-05-10T06:38:17.491Z,31.43
2019-05-10T06:39:17.480Z,31.45
2019-05-10T06:40:17.480Z,31.45
2019-05-10T06:41:19.269Z,31.38
2019-05-10T06:42:17.451Z,31.24
2019-05-10T06:43:17.485Z,31.10
2019-05-10T06:44:17.426Z,31.04
2019-05-10T06:45:17.417Z,30.97
2019-05-10T06:46:17.408Z,30.98
2019-05-10T06:47:17.394Z,30.98
2019-05-10T06:48:26.330Z,30.97
2019-05-10T06:49:50.737Z,31.01
2019-05-10T06:51:09.613Z,30.86
2019-05-10T06:52:07.120Z,30.79
2019-05-10T06:53:10.534Z,30.83
2019-05-10T06:54:07.099Z,30.89
2019-05-10T06:55:07.140Z,30.89
2019-05-10T06:56:07.093Z,30.83
2019-05-10T06:57:11.185Z,30.75
2019-05-10T06:58:36.318Z,30.74
2019-05-10T07:00:05.737Z,30.70
2019-05-10T07:01:21.519Z,30.68
2019-05-10T07:02:26.175Z,30.58
2019-05-10T07:03:46.310Z,30.27
2019-05-10T07:04:46.299Z,29.93
2019-05-10T07:05:46.289Z,29.94
2019-05-10T07:06:46.379Z,30.02
2019-05-10T07:07:46.267Z,30.09
2019-05-10T07:08:51.953Z,30.07
2019-05-10T07:10:18.780Z,30.03
2019-05-10T07:11:35.863Z,30.18
2019-05-10T07:12:36.011Z,30.38
2019-05-10T07:13:40.529Z,30.51
2019-05-10T07:15:03.680Z,30.67
2019-05-10T07:16:00.629Z,30.74
2019-05-10T07:17:02.778Z,30.85
2019-05-10T07:18:00.707Z,30.88
2019-05-10T07:19:02.157Z,30.93
2019-05-10T07:20:00.584Z,30.93
2019-05-10T07:21:06.145Z,30.90
2019-05-10T07:22:01.666Z,30.83
2019-05-10T07:23:05.975Z,30.67
2019-05-10T07:24:01.694Z,30.53
2019-05-10T07:25:04.275Z,30.53
2019-05-10T07:26:00.525Z,30.71
2019-05-10T07:27:02.091Z,30.89
2019-05-10T07:28:00.521Z,30.97
2019-05-10T07:29:00.493Z,31.15
2019-05-10T07:30:00.533Z,31.10
2019-05-10T07:31:00.473Z,31.11
2019-05-10T07:32:00.462Z,31.20
2019-05-10T07:33:02.114Z,30.97
2019-05-10T07:34:00.441Z,30.66
2019-05-10T07:35:01.140Z,30.77
2019-05-10T07:36:00.432Z,30.74
2019-05-10T07:37:01.930Z,30.77
2019-05-10T07:38:00.399Z,30.93
2019-05-10T07:39:02.839Z,30.98
2019-05-10T07:40:25.239Z,31.17
2019-05-10T07:41:27.288Z,31.21
2019-05-10T07:42:25.214Z,31.28
2019-05-10T07:43:28.598Z,31.33
2019-05-10T07:44:25.194Z,31.33
2019-05-10T07:45:25.771Z,31.30
2019-05-10T07:46:25.175Z,31.30
2019-05-10T07:47:30.465Z,31.33
2019-05-10T07:48:53.311Z,31.20
2019-05-10T07:49:49.954Z,31.26
2019-05-10T07:50:51.989Z,31.21
2019-05-10T07:51:49.934Z,31.24
2019-05-10T07:52:49.924Z,31.20
2019-05-10T07:53:49.914Z,31.07
2019-05-10T07:54:49.904Z,30.93
2019-05-10T07:55:49.894Z,30.79
2019-05-10T07:56:49.935Z,30.83
2019-05-10T07:57:49.872Z,30.82
2019-05-10T07:58:49.867Z,30.98
2019-05-10T07:59:51.284Z,31.01
2019-05-10T08:00:49.839Z,30.98
2019-05-10T08:01:49.839Z,30.97
2019-05-10T08:02:57.732Z,31.03
2019-05-10T08:04:21.972Z,31.26
2019-05-10T08:05:39.421Z,31.38
2019-05-10T08:06:44.068Z,31.53
2019-05-10T08:08:04.361Z,31.48
2019-05-10T08:09:07.115Z,31.55
2019-05-10T08:10:04.912Z,31.57
2019-05-10T08:11:04.386Z,31.45
2019-05-10T08:12:05.284Z,31.43
2019-05-10T08:13:04.162Z,31.43
2019-05-10T08:14:06.542Z,31.42
2019-05-10T08:15:05.237Z,31.39
2019-05-10T08:16:05.388Z,31.28
2019-05-10T08:17:06.203Z,31.33
2019-05-10T08:18:04.114Z,31.13
2019-05-10T08:19:04.100Z,30.97
2019-05-10T08:20:08.894Z,30.89
2019-05-10T08:21:28.888Z,30.70
2019-05-10T08:22:32.775Z,30.51
2019-05-10T08:23:54.048Z,30.64
2019-05-10T08:24:56.338Z,30.55
2019-05-10T08:25:53.812Z,30.68
2019-05-10T08:26:57.183Z,30.83
2019-05-10T08:27:55.421Z,30.83
2019-05-10T08:28:53.627Z,30.79
2019-05-10T08:30:17.906Z,30.89
2019-05-10T08:31:18.513Z,30.86
2019-05-10T08:32:19.321Z,30.95
2019-05-10T08:33:18.502Z,31.01
2019-05-10T08:34:18.483Z,30.98
2019-05-10T08:35:18.907Z,30.98
2019-05-10T08:36:18.564Z,31.01
2019-05-10T08:37:30.443Z,30.88
2019-05-10T08:38:47.148Z,30.82
2019-05-10T08:40:08.050Z,30.98
2019-05-10T08:41:13.209Z,30.93
2019-05-10T08:42:30.434Z,30.95
2019-05-10T08:43:38.994Z,30.97
2019-05-10T08:45:03.636Z,30.95
2019-05-10T08:46:28.658Z,30.88
2019-05-10T08:47:47.278Z,30.93
2019-05-10T08:48:51.378Z,31.00
2019-05-10T08:50:08.132Z,31.05
2019-05-10T08:51:12.505Z,31.15
2019-05-10T08:52:12.290Z,31.17
2019-05-10T08:53:16.272Z,31.08
2019-05-10T08:54:12.193Z,31.18
2019-05-10T08:55:12.561Z,31.13
2019-05-10T08:56:13.866Z,31.18
2019-05-10T08:57:43.301Z,30.71
2019-05-10T08:59:03.875Z,30.07
2019-05-10T09:00:07.169Z,29.55
2019-05-10T09:01:30.396Z,29.42
2019-05-10T09:02:52.042Z,29.32
2019-05-10T09:03:55.059Z,29.10
2019-05-10T09:05:22.609Z,29.00
2019-05-10T09:06:42.061Z,29.00
2019-05-10T09:07:42.927Z,29.03
2019-05-10T09:08:42.975Z,29.25
2019-05-10T09:09:49.444Z,29.36
2019-05-10T09:10:42.286Z,29.10
2019-05-10T09:11:43.942Z,29.05
2019-05-10T09:12:50.290Z,29.03
2019-05-10T09:14:05.673Z,28.91
2019-05-10T09:15:10.025Z,28.85
2019-05-10T09:16:39.485Z,28.66
2019-05-10T09:17:32.457Z,28.72
2019-05-10T09:18:30.440Z,28.85
2019-05-10T09:19:39.249Z,28.88
2019-05-10T09:21:00.425Z,28.80
2019-05-10T09:22:24.043Z,28.80
2019-05-10T09:23:44.885Z,29.15
2019-05-10T09:24:48.595Z,29.39
2019-05-10T09:25:44.915Z,29.61
2019-05-10T09:26:46.919Z,29.34
2019-05-10T09:28:16.474Z,29.39
2019-05-10T09:29:12.094Z,29.62
2019-05-10T09:30:14.204Z,29.78
2019-05-10T09:31:34.586Z,29.78
2019-05-10T09:32:34.583Z,29.42
2019-05-10T09:33:34.564Z,29.37
2019-05-10T09:34:34.554Z,29.52
2019-05-10T09:35:38.876Z,29.67
2019-05-10T09:36:59.595Z,29.84
2019-05-10T09:37:59.385Z,29.65
2019-05-10T09:38:59.374Z,29.82
2019-05-10T09:40:08.112Z,29.87
2019-05-10T09:41:27.567Z,29.93
2019-05-10T09:42:49.311Z,30.05
2019-05-10T09:43:50.607Z,30.18
2019-05-10T09:44:49.291Z,30.16
2019-05-10T09:45:49.280Z,30.30
2019-05-10T09:46:49.267Z,30.44
2019-05-10T09:47:49.307Z,30.12
2019-05-10T09:48:54.639Z,29.71
2019-05-10T09:50:14.056Z,29.40
2019-05-10T09:51:18.943Z,29.10
2019-05-10T09:52:38.834Z,29.09
2019-05-10T09:53:38.878Z,29.15
2019-05-10T09:54:38.814Z,29.15
2019-05-10T09:55:38.806Z,29.43
2019-05-10T09:56:44.220Z,29.49
2019-05-10T09:57:38.783Z,29.75
2019-05-10T09:58:38.871Z,29.92
2019-05-10T09:59:38.912Z,30.09
2019-05-10T10:00:38.752Z,30.31
2019-05-10T10:01:38.742Z,30.34
2019-05-10T10:02:40.550Z,30.56
2019-05-10T10:03:43.088Z,30.68
2019-05-10T10:04:39.860Z,30.77
2019-05-10T10:05:40.286Z,30.93
2019-05-10T10:06:41.806Z,31.08
2019-05-10T10:07:39.777Z,31.17
2019-05-10T10:08:43.526Z,31.27
2019-05-10T10:10:03.519Z,31.45
2019-05-10T10:11:13.485Z,31.42
2019-05-10T10:12:28.973Z,31.43
2019-05-10T10:13:39.576Z,31.38
2019-05-10T10:14:53.045Z,31.42
2019-05-10T10:15:53.183Z,31.54
2019-05-10T10:16:58.354Z,31.42
2019-05-10T10:18:21.444Z,31.18
2019-05-10T10:19:42.633Z,30.83
2019-05-10T10:20:44.998Z,30.56
2019-05-10T10:21:42.699Z,30.44
2019-05-10T10:22:43.331Z,30.31
2019-05-10T10:23:42.578Z,30.44
2019-05-10T10:24:42.567Z,30.56
2019-05-10T10:25:42.564Z,30.60
2019-05-10T10:26:42.546Z,30.73
2019-05-10T10:27:42.589Z,30.88
2019-05-10T10:28:42.531Z,31.07
2019-05-10T10:29:42.512Z,31.20
2019-05-10T10:30:42.504Z,31.24
2019-05-10T10:31:51.476Z,31.17
2019-05-10T10:33:11.392Z,31.17
2019-05-10T10:34:32.677Z,31.08
2019-05-10T10:35:32.230Z,31.01
2019-05-10T10:36:32.230Z,30.98
2019-05-10T10:37:32.209Z,31.04
2019-05-10T10:38:37.088Z,31.17
2019-05-10T10:40:00.699Z,31.10
2019-05-10T10:41:26.162Z,30.95
2019-05-10T10:42:47.367Z,30.89
2019-05-10T10:43:48.419Z,30.95
2019-05-10T10:44:48.295Z,30.88
2019-05-10T10:45:46.562Z,30.97
2019-05-10T10:46:47.973Z,30.93
2019-05-10T10:47:47.159Z,30.97
2019-05-10T10:48:49.040Z,30.89
2019-05-10T10:49:46.521Z,30.88
2019-05-10T10:50:53.835Z,30.79
2019-05-10T10:52:13.467Z,30.56
2019-05-10T10:53:11.296Z,30.61
2019-05-10T10:54:11.390Z,30.61
2019-05-10T10:55:13.302Z,30.52
2019-05-10T10:56:11.269Z,30.73
2019-05-10T10:57:11.256Z,30.73
2019-05-10T10:58:11.245Z,30.73
2019-05-10T10:59:11.236Z,30.85
2019-05-10T11:00:11.278Z,30.97
2019-05-10T11:01:21.375Z,31.01
2019-05-10T11:02:36.010Z,31.04
2019-05-10T11:03:36.001Z,31.20
2019-05-10T11:04:40.613Z,31.24
2019-05-10T11:06:00.839Z,31.30
2019-05-10T11:07:09.835Z,31.27
2019-05-10T11:08:25.627Z,31.04
2019-05-10T11:09:25.616Z,30.92
2019-05-10T11:10:25.606Z,30.85
2019-05-10T11:11:30.719Z,30.68
2019-05-10T11:12:51.243Z,30.60
2019-05-10T11:13:58.163Z,30.51
2019-05-10T11:14:51.468Z,30.52
2019-05-10T11:15:51.666Z,30.63
2019-05-10T11:16:52.967Z,30.58
2019-05-10T11:17:50.667Z,30.52
2019-05-10T11:18:51.956Z,30.53
2019-05-10T11:19:50.325Z,30.55
2019-05-10T11:20:53.865Z,30.38
2019-05-10T11:21:51.439Z,30.40
2019-05-10T11:22:53.388Z,30.36
2019-05-10T11:23:50.280Z,30.30
2019-05-10T11:24:51.732Z,30.24
2019-05-10T11:26:15.068Z,30.18
2019-05-10T11:27:17.193Z,30.00
2019-05-10T11:28:15.197Z,29.84
2019-05-10T11:29:23.067Z,29.75
2019-05-10T11:30:39.839Z,29.55
2019-05-10T11:31:41.435Z,29.34
2019-05-10T11:32:41.811Z,29.27
2019-05-10T11:33:41.436Z,29.09
2019-05-10T11:34:39.794Z,29.09
2019-05-10T11:35:41.695Z,29.10
2019-05-10T11:36:40.529Z,29.12
2019-05-10T11:37:42.080Z,29.28
2019-05-10T11:38:41.965Z,29.48
2019-05-10T11:39:45.502Z,29.70
2019-05-10T11:41:07.154Z,29.78
2019-05-10T11:42:30.974Z,29.93
2019-05-10T11:43:31.295Z,30.15
2019-05-10T11:44:31.525Z,30.23
2019-05-10T11:45:32.276Z,30.19
2019-05-10T11:46:31.040Z,29.97
2019-05-10T11:47:31.242Z,29.72
2019-05-10T11:48:36.771Z,29.33
2019-05-10T11:49:54.228Z,29.07
2019-05-10T11:50:54.220Z,28.93
2019-05-10T11:51:58.529Z,28.82
2019-05-10T11:52:54.195Z,28.73
2019-05-10T11:53:59.392Z,28.63
2019-05-10T11:54:54.228Z,28.60
2019-05-10T11:55:54.167Z,28.58
2019-05-10T11:56:58.555Z,28.62
2019-05-10T11:58:18.958Z,28.75
2019-05-10T11:59:21.635Z,28.82
2019-05-10T12:00:25.640Z,28.85
2019-05-10T12:01:43.736Z,29.28
2019-05-10T12:03:03.181Z,29.43
2019-05-10T12:04:13.035Z,29.61
2019-05-10T12:05:33.476Z,29.64
2019-05-10T12:06:33.315Z,29.70
2019-05-10T12:07:40.341Z,29.84
2019-05-10T12:09:02.169Z,29.82
2019-05-10T12:10:25.732Z,29.89
2019-05-10T12:11:32.461Z,29.94
2019-05-10T12:13:05.703Z,29.97
2019-05-10T12:14:13.783Z,29.97
2019-05-10T12:16:16.853Z,30.02
2019-05-10T12:17:14.299Z,29.99
2019-05-10T12:18:14.917Z,30.05
2019-05-10T12:19:19.838Z,30.12
2019-05-10T12:20:52.173Z,30.15
2019-05-10T12:22:04.692Z,30.14
2019-05-10T12:23:03.190Z,30.15
2019-05-10T12:24:10.588Z,30.12
2019-05-10T12:25:27.408Z,29.99
2019-05-10T12:26:06.530Z,29.97
2019-05-10T12:27:13.278Z,30.00
2019-05-10T12:27:18.899Z,29.93
2019-05-10T12:28:03.130Z,29.93
2019-05-10T12:29:11.562Z,29.97
2019-05-10T12:30:29.494Z,29.94
2019-05-10T12:31:55.155Z,30.00
2019-05-10T12:32:56.623Z,30.15
2019-05-10T12:33:52.896Z,30.07
2019-05-10T12:34:56.299Z,29.90
2019-05-10T12:35:51.532Z,29.96
2019-05-10T12:36:52.065Z,29.87
2019-05-10T12:37:54.167Z,29.86
2019-05-10T12:38:51.499Z,29.81
2019-05-10T12:39:53.170Z,29.86
2019-05-10T12:40:51.531Z,29.90
2019-05-10T12:41:53.025Z,29.87
2019-05-10T12:42:51.462Z,29.90
2019-05-10T12:43:51.813Z,29.94
2019-05-10T12:44:52.034Z,29.86
2019-05-10T12:45:51.920Z,29.86
2019-05-10T12:46:54.289Z,29.89
2019-05-10T12:47:51.982Z,29.82
2019-05-10T12:48:51.761Z,29.84
2019-05-10T12:49:54.014Z,29.81
2019-05-10T12:51:16.735Z,29.70
2019-05-10T12:52:16.338Z,29.71
2019-05-10T12:53:18.497Z,29.64
2019-05-10T12:54:18.551Z,29.72
2019-05-10T12:55:41.113Z,29.61
2019-05-10T12:56:43.740Z,29.37
2019-05-10T12:57:43.334Z,29.19
2019-05-10T12:58:41.072Z,29.03
2019-05-10T12:59:41.064Z,29.05
2019-05-10T13:00:41.051Z,28.91
2019-05-10T13:01:41.040Z,28.78
2019-05-10T13:02:44.963Z,28.68
2019-05-10T13:04:13.449Z,28.59
2019-05-10T13:05:32.311Z,28.47
2019-05-10T13:06:30.625Z,28.47
2019-05-10T13:07:30.619Z,28.50
2019-05-10T13:08:30.751Z,28.56
2019-05-10T13:09:39.991Z,28.56
2019-05-10T13:10:55.391Z,28.54
2019-05-10T13:12:03.144Z,28.53
2019-05-10T13:12:56.466Z,28.47
2019-05-10T13:13:55.485Z,28.48
2019-05-10T13:14:55.355Z,28.32
2019-05-10T13:15:55.341Z,28.43
2019-05-10T13:16:55.328Z,28.33
2019-05-10T13:17:55.322Z,28.41
2019-05-10T13:18:55.333Z,28.28
2019-05-10T13:19:58.345Z,28.28
2019-05-10T13:20:55.291Z,28.32
2019-05-10T13:21:58.744Z,28.28
2019-05-10T13:22:55.271Z,28.25
2019-05-10T13:23:55.458Z,28.12
2019-05-10T13:24:55.262Z,28.12
2019-05-10T13:25:55.392Z,28.16
2019-05-10T13:26:55.230Z,28.18
2019-05-10T13:27:55.221Z,28.08
2019-05-10T13:28:55.214Z,28.09
2019-05-10T13:29:55.197Z,28.00
2019-05-10T13:30:59.745Z,27.94
2019-05-10T13:32:20.525Z,27.98
2019-05-10T13:33:28.470Z,27.98
2019-05-10T13:34:44.829Z,28.00
2019-05-10T13:35:44.817Z,28.02
2019-05-10T13:36:44.813Z,27.98
2019-05-10T13:37:44.853Z,27.90
2019-05-10T13:38:49.085Z,27.88
2019-05-10T13:39:44.776Z,27.91
2019-05-10T13:40:45.587Z,27.84
2019-05-10T13:41:44.759Z,27.85
2019-05-10T13:42:46.046Z,27.78
2019-05-10T13:43:44.889Z,27.76